Kaszuby — C6XD6 — position and weather

sailwx.info

Track history (hours):
 
Tides and Currents Weather Stations Pressure Air Temp Water Temp Dewpoint Dewpoint Depression Visibility Wind Speed Wind Dir Waves Ship Positions

Kaszuby

Last reported at 2016-Dec-03 20:28 UTC. Time now 2016-Dec-04 03:56 UTC.
Position N 53°22' E 004°40'.

Length 190 m; draft 9.4 m.

Type: Cargo ship. MMSI: 311005600.

Date/timePositionNaut miles runAvg speedWind from/ knotsBaromVisibWave heightAir tempDewpointWater temp
2016-Dec-03 20:28N 53°22' E 004°40'1313.8
2016-Dec-03 19:33N 53°10' E 004°31'1414.0
2016-Dec-03 18:33N 52°58' E 004°20'1413.7
2016-Dec-03 17:32N 52°46' E 004°08'1413.8
2016-Dec-03 16:30N 52°36' E 003°52'1313.9
2016-Dec-03 15:33N 52°26' E 003°37'1513.5
2016-Dec-03 14:25N 52°15' E 003°19'2612.2
2016-Dec-03 12:16N 51°56' E 002°51'811.4
2016-Dec-03 11:32N 51°49' E 002°42'1111.1
2016-Dec-03 10:33N 51°41' E 002°30'1110.9
2016-Dec-03 09:33N 51°33' E 002°20'1111.0
2016-Dec-03 08:33N 51°24' E 002°08'1010.3
2016-Dec-03 07:33N 51°14' E 002°03'1111.0
2016-Dec-03 06:34N 51°08' E 001°48'1211.6
2016-Dec-03 05:33N 50°60' E 001°35'1312.7
2016-Dec-03 04:33N 50°49' E 001°25'4912.1
2016-Dec-03 00:33N 50°23' E 000°21'1413.6
2016-Dec-02 23:33N 50°19' W 000°00'3014.9
2016-Dec-02 21:33N 50°12' W 000°45'1515.2
2016-Dec-02 20:34N 50°07' W 001°08'1414.4
2016-Dec-02 19:33N 50°04' W 001°30'1413.5
2016-Dec-02 18:33N 50°01' W 001°50'1212.0
2016-Dec-02 17:33N 49°58' W 002°08'1110.9
2016-Dec-02 16:33N 49°55' W 002°25'1110.6
2016-Dec-02 15:32N 49°52' W 002°41'1010.4
2016-Dec-02 14:33N 49°49' W 002°56'1110.9
2016-Dec-02 13:33N 49°43' W 003°10'1211.4
2016-Dec-02 12:30N 49°37' W 003°26'1311.6
2016-Dec-02 11:21N 49°30' W 003°44'6512.7
2016-Dec-02 06:13N 48°57' W 005°09'1114.1
2016-Dec-02 05:25N 48°51' W 005°24'4113.9
2016-Dec-02 02:30N 48°18' W 005°59'6812.9
2016-Dec-01 21:14N 47°17' W 006°46'812.1
2016-Dec-01 20:33N 47°10' W 006°52'7 7.2
2016-Dec-01 19:33N 47°04' W 006°57'47512.5
2016-Nov-30 05:30N 39°26' W 009°51'1213.3
2016-Nov-30 04:33N 39°13' W 009°51'1313.1
2016-Nov-30 03:33N 39°00' W 009°51'1313.2
2016-Nov-30 02:33N 38°47' W 009°51'1313.3
2016-Nov-30 01:33N 38°34' W 009°49'1313.1
2016-Nov-30 00:33N 38°21' W 009°45'1313.0
2016-Nov-29 23:33N 38°09' W 009°41'23611.1
2016-Nov-29 02:24N 35°58' W 005°36'911.1
2016-Nov-29 01:33N 36°00' W 005°25'  
Track history (hours):
 
Tides and Currents Weather Stations Pressure Air Temp Water Temp Dewpoint Dewpoint Depression Visibility Wind Speed Wind Dir Waves Ship Positions

Kaszuby

Last reported at 2016-Dec-03 20:28 UTC. Time now 2016-Dec-04 03:56 UTC.
Position N 53°22' E 004°40'.

Length 190 m; draft 9.4 m.

Type: Cargo ship. MMSI: 311005600.

Date/timePositionNaut miles runAvg speedWind from/ knotsBaromVisibWave heightAir tempDewpointWater temp
2016-Dec-03 20:28N 53°22' E 004°40'1313.8
2016-Dec-03 19:33N 53°10' E 004°31'1414.0
2016-Dec-03 18:33N 52°58' E 004°20'1413.7
2016-Dec-03 17:32N 52°46' E 004°08'1413.8
2016-Dec-03 16:30N 52°36' E 003°52'1313.9
2016-Dec-03 15:33N 52°26' E 003°37'1513.5
2016-Dec-03 14:25N 52°15' E 003°19'2612.2
2016-Dec-03 12:16N 51°56' E 002°51'811.4
2016-Dec-03 11:32N 51°49' E 002°42'1111.1
2016-Dec-03 10:33N 51°41' E 002°30'1110.9
2016-Dec-03 09:33N 51°33' E 002°20'1111.0
2016-Dec-03 08:33N 51°24' E 002°08'1010.3
2016-Dec-03 07:33N 51°14' E 002°03'1111.0
2016-Dec-03 06:34N 51°08' E 001°48'1211.6
2016-Dec-03 05:33N 50°60' E 001°35'1312.7
2016-Dec-03 04:33N 50°49' E 001°25'4912.1
2016-Dec-03 00:33N 50°23' E 000°21'1413.6
2016-Dec-02 23:33N 50°19' W 000°00'3014.9
2016-Dec-02 21:33N 50°12' W 000°45'1515.2
2016-Dec-02 20:34N 50°07' W 001°08'1414.4
2016-Dec-02 19:33N 50°04' W 001°30'1413.5
2016-Dec-02 18:33N 50°01' W 001°50'1212.0
2016-Dec-02 17:33N 49°58' W 002°08'1110.9
2016-Dec-02 16:33N 49°55' W 002°25'1110.6
2016-Dec-02 15:32N 49°52' W 002°41'1010.4
2016-Dec-02 14:33N 49°49' W 002°56'1110.9
2016-Dec-02 13:33N 49°43' W 003°10'1211.4
2016-Dec-02 12:30N 49°37' W 003°26'1311.6
2016-Dec-02 11:21N 49°30' W 003°44'6512.7
2016-Dec-02 06:13N 48°57' W 005°09'1114.1
2016-Dec-02 05:25N 48°51' W 005°24'4113.9
2016-Dec-02 02:30N 48°18' W 005°59'6812.9
2016-Dec-01 21:14N 47°17' W 006°46'812.1
2016-Dec-01 20:33N 47°10' W 006°52'7 7.2
2016-Dec-01 19:33N 47°04' W 006°57'47512.5
2016-Nov-30 05:30N 39°26' W 009°51'1213.3
2016-Nov-30 04:33N 39°13' W 009°51'1313.1
2016-Nov-30 03:33N 39°00' W 009°51'1313.2
2016-Nov-30 02:33N 38°47' W 009°51'1313.3
2016-Nov-30 01:33N 38°34' W 009°49'1313.1
2016-Nov-30 00:33N 38°21' W 009°45'1313.0
2016-Nov-29 23:33N 38°09' W 009°41'23611.1
2016-Nov-29 02:24N 35°58' W 005°36'911.1
2016-Nov-29 01:33N 36°00' W 005°25'  

Dump ship's entire track history